createdAt,value
2022-10-23T00:01:47.219Z,8.51
2022-10-23T00:04:21.483Z,7.98
2022-10-23T00:06:49.891Z,8.22
2022-10-23T00:09:20.515Z,8.37
2022-10-23T00:11:50.250Z,7.94
2022-10-23T00:14:21.493Z,8.27
2022-10-23T00:16:49.122Z,8.21
2022-10-23T00:19:16.770Z,8.25
2022-10-23T00:21:44.872Z,8.33
2022-10-23T00:24:13.154Z,8.12
2022-10-23T00:26:41.491Z,8.32
2022-10-23T00:29:10.984Z,8.57
2022-10-23T00:31:38.546Z,8.11
2022-10-23T00:34:08.636Z,8.01
2022-10-23T00:36:37.753Z,8.07
2022-10-23T00:39:06.147Z,8.16
2022-10-23T00:41:34.715Z,8.06
2022-10-23T00:44:09.600Z,7.61
2022-10-23T00:46:38.859Z,7.88
2022-10-23T00:49:08.171Z,7.97
2022-10-23T00:51:45.577Z,8.11
2022-10-23T00:54:30.425Z,7.95
2022-10-23T00:57:01.704Z,8.21
2022-10-23T00:59:30.462Z,8.15
2022-10-23T01:01:58.852Z,7.89
2022-10-23T01:04:28.280Z,7.94
2022-10-23T01:07:20.282Z,7.87
2022-10-23T01:10:14.251Z,7.25
2022-10-23T01:12:58.608Z,7.26
2022-10-23T01:15:29.229Z,7.50
2022-10-23T01:18:27.736Z,7.48
2022-10-23T01:21:17.675Z,7.51
2022-10-23T01:24:09.724Z,7.65
2022-10-23T01:27:11.836Z,7.71
2022-10-23T01:30:01.973Z,7.77
2022-10-23T01:32:55.175Z,7.84
2022-10-23T01:35:29.555Z,7.95
2022-10-23T01:38:23.961Z,7.61
2022-10-23T01:41:03.224Z,7.49
2022-10-23T01:43:45.139Z,7.54
2022-10-23T01:46:17.894Z,7.62
2022-10-23T01:48:54.914Z,7.74
2022-10-23T01:51:27.296Z,7.63
2022-10-23T01:53:59.936Z,7.57
2022-10-23T01:56:33.600Z,7.54
2022-10-23T01:59:05.241Z,7.74
2022-10-23T02:01:35.232Z,7.99
2022-10-23T02:04:05.953Z,7.88
2022-10-23T02:06:33.517Z,7.88
2022-10-23T02:09:00.988Z,7.88
2022-10-23T02:11:29.995Z,7.82
2022-10-23T02:14:04.133Z,7.85
2022-10-23T02:16:54.758Z,8.04
2022-10-23T02:19:37.897Z,7.89
2022-10-23T02:22:06.140Z,7.93
2022-10-23T02:24:42.826Z,7.88
2022-10-23T02:27:19.164Z,7.90
2022-10-23T02:29:52.922Z,7.93
2022-10-23T02:32:24.817Z,7.91
2022-10-23T02:34:52.049Z,8.12
2022-10-23T02:37:19.538Z,8.13
2022-10-23T02:39:48.474Z,8.11
2022-10-23T02:42:23.121Z,8.15
2022-10-23T02:45:19.671Z,8.23
2022-10-23T02:48:12.845Z,8.01
2022-10-23T02:51:25.586Z,7.99
2022-10-23T02:54:16.417Z,8.19
2022-10-23T02:56:57.141Z,7.91
2022-10-23T03:00:04.987Z,7.94
2022-10-23T03:02:40.509Z,8.12
2022-10-23T03:05:12.558Z,7.86
2022-10-23T03:07:41.501Z,7.92
2022-10-23T03:10:10.828Z,7.95
2022-10-23T03:12:39.050Z,8.01
2022-10-23T03:15:08.590Z,7.79
2022-10-23T03:17:35.975Z,7.82
2022-10-23T03:20:05.019Z,7.66
2022-10-23T03:22:32.992Z,7.77
2022-10-23T03:25:00.743Z,7.61
2022-10-23T03:27:29.869Z,7.80
2022-10-23T03:29:59.540Z,7.90
2022-10-23T03:32:27.157Z,7.88
2022-10-23T03:34:54.529Z,7.83
2022-10-23T03:37:22.841Z,7.79
2022-10-23T03:39:51.147Z,7.90
2022-10-23T03:42:18.930Z,7.83
2022-10-23T03:44:46.853Z,7.85
2022-10-23T03:47:14.494Z,7.83
2022-10-23T03:49:42.065Z,7.89
2022-10-23T03:52:09.910Z,7.75
2022-10-23T03:54:38.569Z,7.79
2022-10-23T03:57:06.112Z,7.72
2022-10-23T03:59:33.999Z,7.57
2022-10-23T04:02:01.639Z,7.67
2022-10-23T04:04:30.407Z,7.43
2022-10-23T04:06:57.829Z,7.24
2022-10-23T04:09:25.410Z,7.20
2022-10-23T04:11:53.189Z,7.14
2022-10-23T04:14:20.551Z,7.01
2022-10-23T04:16:48.031Z,7.01
2022-10-23T04:19:17.335Z,7.07
2022-10-23T04:21:45.340Z,7.12
2022-10-23T04:24:13.072Z,6.99
2022-10-23T04:26:41.341Z,7.09
2022-10-23T04:29:10.069Z,7.09
2022-10-23T04:31:37.381Z,7.08
2022-10-23T04:36:33.566Z,7.08
2022-10-23T04:39:02.555Z,6.99
2022-10-23T04:41:30.422Z,7.04
2022-10-23T04:43:57.869Z,6.98
2022-10-23T04:46:25.706Z,6.83
2022-10-23T04:48:53.450Z,6.97
2022-10-23T04:51:21.315Z,7.10
2022-10-23T04:53:49.177Z,7.00
2022-10-23T04:56:18.665Z,7.00
2022-10-23T04:58:46.326Z,6.96
2022-10-23T05:01:13.862Z,6.80
2022-10-23T05:03:42.025Z,6.81
2022-10-23T05:06:09.983Z,7.04
2022-10-23T05:08:37.863Z,7.02
2022-10-23T05:11:06.012Z,7.00
2022-10-23T05:13:36.562Z,6.99
2022-10-23T05:16:04.136Z,7.18
2022-10-23T05:18:38.313Z,7.25
2022-10-23T05:21:12.146Z,7.28
2022-10-23T05:23:44.609Z,7.16
2022-10-23T05:26:13.972Z,7.05
2022-10-23T05:28:43.037Z,7.11
2022-10-23T05:31:13.810Z,7.20
2022-10-23T05:33:41.954Z,7.19
2022-10-23T05:36:13.104Z,7.16
2022-10-23T05:38:41.037Z,7.38
2022-10-23T05:41:10.134Z,7.42
2022-10-23T05:43:37.971Z,7.50
2022-10-23T05:46:07.250Z,7.63
2022-10-23T05:48:35.618Z,7.67
2022-10-23T05:51:05.233Z,7.90
2022-10-23T05:53:33.111Z,7.82
2022-10-23T05:56:08.760Z,7.81
2022-10-23T05:58:38.815Z,7.93
2022-10-23T06:01:12.531Z,8.21
2022-10-23T06:03:41.298Z,8.21
2022-10-23T06:06:09.840Z,8.21
2022-10-23T06:08:38.602Z,8.40
2022-10-23T06:11:11.443Z,8.68
2022-10-23T06:13:39.739Z,8.67
2022-10-23T06:16:15.509Z,8.82
2022-10-23T06:18:43.614Z,9.14
2022-10-23T06:21:11.492Z,9.38
2022-10-23T06:23:40.849Z,9.71
2022-10-23T06:26:10.694Z,10.07
2022-10-23T06:28:39.492Z,10.65
2022-10-23T06:31:13.230Z,11.48
2022-10-23T06:33:41.831Z,12.11
2022-10-23T06:36:10.861Z,12.63
2022-10-23T06:38:40.816Z,13.10
2022-10-23T06:41:14.453Z,13.30
2022-10-23T06:43:42.324Z,13.63
2022-10-23T06:46:14.772Z,13.96
2022-10-23T06:48:44.314Z,14.21
2022-10-23T06:51:14.299Z,14.47
2022-10-23T06:53:42.483Z,14.58
2022-10-23T06:56:11.238Z,14.46
2022-10-23T06:58:40.040Z,14.62
2022-10-23T07:01:09.450Z,15.02
2022-10-23T07:03:37.169Z,14.90
2022-10-23T07:06:07.846Z,15.05
2022-10-23T07:08:36.769Z,15.27
2022-10-23T07:11:07.401Z,15.51
2022-10-23T07:13:36.692Z,15.75
2022-10-23T07:16:14.185Z,15.91
2022-10-23T07:18:42.322Z,16.04
2022-10-23T07:21:11.185Z,16.22
2022-10-23T07:23:39.037Z,16.30
2022-10-23T07:26:16.277Z,16.46
2022-10-23T07:28:46.494Z,16.67
2022-10-23T07:31:17.854Z,16.67
2022-10-23T07:33:47.800Z,16.64
2022-10-23T07:36:16.189Z,16.81
2022-10-23T07:38:44.210Z,16.93
2022-10-23T07:41:12.558Z,17.11
2022-10-23T07:43:40.661Z,17.08
2022-10-23T07:46:11.512Z,17.23
2022-10-23T07:48:40.251Z,17.33
2022-10-23T07:51:12.976Z,17.54
2022-10-23T07:53:41.704Z,17.55
2022-10-23T07:56:17.276Z,17.44
2022-10-23T07:58:47.946Z,17.65
2022-10-23T08:01:32.187Z,17.89
2022-10-23T08:04:01.094Z,17.99
2022-10-23T08:06:29.807Z,18.20
2022-10-23T08:08:59.899Z,18.30
2022-10-23T08:11:35.558Z,18.24
2022-10-23T08:14:05.243Z,18.10
2022-10-23T08:16:35.232Z,18.41
2022-10-23T08:19:07.038Z,18.43
2022-10-23T08:21:35.294Z,18.42
2022-10-23T08:24:03.103Z,18.49
2022-10-23T08:26:31.232Z,18.36
2022-10-23T08:29:00.200Z,18.52
2022-10-23T08:31:28.173Z,18.67
2022-10-23T08:33:57.068Z,18.55
2022-10-23T08:36:29.603Z,18.55
2022-10-23T08:38:58.409Z,18.68
2022-10-23T08:41:31.414Z,18.59
2022-10-23T08:44:24.533Z,18.73
2022-10-23T08:47:05.610Z,18.84
2022-10-23T08:49:48.401Z,19.17
2022-10-23T08:52:20.036Z,19.45
2022-10-23T08:54:57.755Z,19.69
2022-10-23T08:57:35.551Z,19.54
2022-10-23T09:00:08.507Z,19.29
2022-10-23T09:02:44.295Z,19.53
2022-10-23T09:05:37.008Z,19.55
2022-10-23T09:08:23.275Z,19.54
2022-10-23T09:11:27.206Z,19.87
2022-10-23T09:14:33.152Z,19.57
2022-10-23T09:17:31.585Z,19.56
2022-10-23T09:20:22.100Z,19.38
2022-10-23T09:22:54.456Z,19.64
2022-10-23T09:25:29.325Z,19.89
2022-10-23T09:28:05.286Z,19.98
2022-10-23T09:30:42.662Z,19.78
2022-10-23T09:33:28.722Z,19.86
2022-10-23T09:35:58.430Z,20.13
2022-10-23T09:38:37.961Z,20.34
2022-10-23T09:41:40.142Z,20.43
2022-10-23T09:44:07.547Z,20.58
2022-10-23T09:46:56.469Z,20.37
2022-10-23T09:49:29.886Z,20.36
2022-10-23T09:52:24.685Z,20.50
2022-10-23T09:54:56.319Z,20.87
2022-10-23T09:57:45.126Z,21.18
2022-10-23T10:00:14.190Z,21.60
2022-10-23T10:02:44.316Z,21.77
2022-10-23T10:05:37.154Z,21.31
2022-10-23T10:08:20.675Z,21.37
2022-10-23T10:10:52.466Z,21.17
2022-10-23T10:13:49.699Z,21.49
2022-10-23T10:19:31.904Z,22.00
2022-10-23T10:22:23.821Z,21.82
2022-10-23T10:25:03.194Z,21.53
2022-10-23T10:28:04.875Z,21.97
2022-10-23T10:30:57.331Z,21.82
2022-10-23T10:33:37.831Z,22.07
2022-10-23T10:36:30.856Z,22.25
2022-10-23T10:39:04.076Z,21.91
2022-10-23T10:41:45.563Z,21.93
2022-10-23T10:44:28.369Z,22.11
2022-10-23T10:47:38.035Z,22.33
2022-10-23T10:50:05.590Z,22.31
2022-10-23T10:52:48.292Z,22.66
2022-10-23T10:55:49.564Z,22.43
2022-10-23T10:58:23.908Z,22.82
2022-10-23T11:01:00.566Z,22.68
2022-10-23T11:03:40.284Z,22.75
2022-10-23T11:06:15.380Z,23.13
2022-10-23T11:08:56.387Z,23.13
2022-10-23T11:11:28.723Z,22.76
2022-10-23T11:13:57.759Z,22.82
2022-10-23T11:16:30.209Z,22.80
2022-10-23T11:19:21.625Z,22.36
2022-10-23T11:22:07.412Z,22.77
2022-10-23T11:25:17.456Z,22.96
2022-10-23T11:28:01.695Z,23.00
2022-10-23T11:30:38.849Z,23.23
2022-10-23T11:33:28.120Z,23.42
2022-10-23T11:36:07.206Z,23.56
2022-10-23T11:38:37.659Z,23.59
2022-10-23T11:41:19.939Z,23.52
2022-10-23T11:43:57.223Z,23.49
2022-10-23T11:46:25.710Z,23.36
2022-10-23T11:48:55.059Z,23.29
2022-10-23T11:51:33.435Z,23.24
2022-10-23T11:54:10.344Z,23.37
2022-10-23T11:56:39.441Z,23.32
2022-10-23T11:59:39.367Z,23.33
2022-10-23T12:02:28.768Z,23.25
2022-10-23T12:04:56.854Z,23.23
2022-10-23T12:07:29.044Z,23.25
2022-10-23T12:10:04.909Z,23.29
2022-10-23T12:12:32.564Z,23.11
2022-10-23T12:15:27.254Z,23.27
2022-10-23T12:18:07.837Z,23.30
2022-10-23T12:20:42.973Z,23.35
2022-10-23T12:23:24.143Z,23.35
2022-10-23T12:25:58.091Z,23.50
2022-10-23T12:28:42.387Z,23.61
2022-10-23T12:31:47.969Z,23.50
2022-10-23T12:34:48.087Z,23.77
2022-10-23T12:37:44.807Z,23.42
2022-10-23T12:40:12.726Z,23.23
2022-10-23T12:42:41.652Z,23.62
2022-10-23T12:45:22.761Z,23.98
2022-10-23T12:47:52.434Z,23.80
2022-10-23T12:50:23.362Z,23.70
2022-10-23T12:52:52.959Z,23.69
2022-10-23T12:55:21.235Z,23.78
2022-10-23T12:57:48.886Z,23.97
2022-10-23T13:00:20.465Z,23.88
2022-10-23T13:02:58.110Z,24.01
2022-10-23T13:05:27.296Z,23.68
2022-10-23T13:07:55.534Z,23.77
2022-10-23T13:10:25.298Z,23.60
2022-10-23T13:13:00.376Z,23.47
2022-10-23T13:15:38.358Z,23.63
2022-10-23T13:18:08.273Z,23.46
2022-10-23T13:20:43.547Z,23.43
2022-10-23T13:23:19.141Z,23.28
2022-10-23T13:26:21.667Z,23.49
2022-10-23T13:28:50.432Z,23.43
2022-10-23T13:31:17.928Z,23.48
2022-10-23T13:33:47.293Z,23.58
2022-10-23T13:36:15.054Z,23.96
2022-10-23T13:38:58.913Z,23.89
2022-10-23T13:41:31.875Z,24.34
2022-10-23T13:43:59.332Z,24.89
2022-10-23T13:46:27.083Z,25.57
2022-10-23T13:48:54.559Z,26.08
2022-10-23T13:51:25.551Z,26.24
2022-10-23T13:53:54.380Z,26.65
2022-10-23T13:56:24.428Z,26.43
2022-10-23T13:58:52.078Z,26.39
2022-10-23T14:01:28.019Z,27.12
2022-10-23T14:03:57.880Z,27.67
2022-10-23T14:06:25.834Z,27.99
2022-10-23T14:08:53.267Z,27.56
2022-10-23T14:11:21.719Z,26.70
2022-10-23T14:13:49.799Z,26.61
2022-10-23T14:16:19.751Z,26.69
2022-10-23T14:18:48.302Z,25.90
2022-10-23T14:21:22.151Z,25.41
2022-10-23T14:23:51.847Z,24.91
2022-10-23T14:26:25.890Z,24.41
2022-10-23T14:29:00.701Z,24.02
2022-10-23T14:31:32.201Z,23.39
2022-10-23T14:34:01.913Z,22.77
2022-10-23T14:36:38.636Z,22.50
2022-10-23T14:39:17.795Z,22.31
2022-10-23T14:41:45.226Z,21.98
2022-10-23T14:44:12.733Z,21.66
2022-10-23T14:46:40.739Z,21.47
2022-10-23T14:51:35.601Z,21.38
2022-10-23T14:54:06.409Z,21.34
2022-10-23T14:56:36.839Z,21.34
2022-10-23T14:59:04.887Z,21.41
2022-10-23T15:01:35.450Z,21.28
2022-10-23T15:04:03.184Z,21.25
2022-10-23T15:06:31.230Z,20.98
2022-10-23T15:08:58.667Z,20.89
2022-10-23T15:11:27.312Z,20.92
2022-10-23T15:13:55.943Z,20.67
2022-10-23T15:16:24.710Z,20.54
2022-10-23T15:18:52.525Z,20.53
2022-10-23T15:21:20.544Z,20.07
2022-10-23T15:23:48.653Z,20.20
2022-10-23T15:26:23.533Z,19.89
2022-10-23T15:28:56.604Z,19.56
2022-10-23T15:31:58.069Z,19.38
2022-10-23T15:34:29.103Z,19.21
2022-10-23T15:36:57.856Z,18.92
2022-10-23T15:39:33.984Z,19.01
2022-10-23T15:42:04.271Z,18.92
2022-10-23T15:44:33.873Z,18.90
2022-10-23T15:47:01.609Z,18.74
2022-10-23T15:49:32.886Z,18.76
2022-10-23T15:52:00.812Z,18.63
2022-10-23T15:54:30.667Z,18.31
2022-10-23T15:57:01.219Z,18.35
2022-10-23T15:59:30.497Z,18.41
2022-10-23T16:01:58.193Z,18.15
2022-10-23T16:04:26.197Z,18.11
2022-10-23T16:06:53.628Z,17.94
2022-10-23T16:09:21.571Z,17.78
2022-10-23T16:11:49.380Z,17.70
2022-10-23T16:14:17.793Z,17.72
2022-10-23T16:16:45.384Z,17.50
2022-10-23T16:19:13.297Z,17.42
2022-10-23T16:21:41.711Z,17.16
2022-10-23T16:24:09.674Z,17.10
2022-10-23T16:26:38.127Z,17.10
2022-10-23T16:29:08.374Z,17.07
2022-10-23T16:31:36.107Z,16.99
2022-10-23T16:34:05.590Z,17.02
2022-10-23T16:36:34.722Z,16.94
2022-10-23T16:39:04.417Z,16.96
2022-10-23T16:41:40.617Z,16.74
2022-10-23T16:44:15.970Z,16.62
2022-10-23T16:46:45.613Z,16.43
2022-10-23T16:49:14.120Z,16.37
2022-10-23T16:51:41.569Z,16.25
2022-10-23T16:54:09.802Z,16.28
2022-10-23T16:56:37.248Z,16.27
2022-10-23T16:59:04.664Z,16.18
2022-10-23T17:01:33.657Z,16.24
2022-10-23T17:04:01.944Z,16.11
2022-10-23T17:13:37.770Z,15.80
2022-10-23T17:16:09.535Z,15.80
2022-10-23T17:18:42.854Z,15.38
2022-10-23T17:21:17.517Z,15.27
2022-10-23T17:23:45.630Z,15.23
2022-10-23T17:26:17.016Z,15.09
2022-10-23T17:28:44.864Z,14.92
2022-10-23T17:31:15.667Z,15.01
2022-10-23T17:33:43.744Z,14.96
2022-10-23T17:36:13.949Z,14.90
2022-10-23T17:38:45.850Z,14.90
2022-10-23T17:41:15.812Z,14.74
2022-10-23T17:43:44.733Z,14.70
2022-10-23T17:46:13.830Z,14.64
2022-10-23T17:48:43.640Z,14.64
2022-10-23T17:51:17.285Z,14.69
2022-10-23T17:53:47.923Z,14.83
2022-10-23T17:56:20.172Z,14.59
2022-10-23T17:58:47.761Z,14.58
2022-10-23T18:01:18.379Z,14.27
2022-10-23T18:03:46.387Z,14.40
2022-10-23T18:06:18.087Z,14.25
2022-10-23T18:08:46.560Z,14.10
2022-10-23T18:11:32.600Z,14.13
2022-10-23T18:14:01.600Z,14.06
2022-10-23T18:16:29.722Z,14.01
2022-10-23T18:19:00.025Z,13.79
2022-10-23T18:21:28.091Z,13.72
2022-10-23T18:23:55.865Z,13.51
2022-10-23T18:26:26.821Z,13.83
2022-10-23T18:28:57.552Z,13.72
2022-10-23T18:31:27.323Z,13.77
2022-10-23T18:34:01.607Z,13.64
2022-10-23T18:36:31.868Z,13.63
2022-10-23T18:38:59.959Z,13.38
2022-10-23T18:41:28.250Z,12.97
2022-10-23T18:43:55.670Z,12.65
2022-10-23T18:46:23.316Z,12.86
2022-10-23T18:48:53.782Z,12.97
2022-10-23T18:51:33.311Z,13.07
2022-10-23T18:54:04.322Z,12.95
2022-10-23T18:56:33.772Z,13.08
2022-10-23T18:59:03.742Z,13.10
2022-10-23T19:01:32.070Z,12.54
2022-10-23T19:04:01.566Z,12.70
2022-10-23T19:06:30.377Z,12.52
2022-10-23T19:08:58.694Z,12.03
2022-10-23T19:11:27.538Z,12.31
2022-10-23T19:13:55.711Z,12.41
2022-10-23T19:17:03.043Z,12.22
2022-10-23T19:19:35.951Z,12.18
2022-10-23T19:22:04.417Z,12.13
2022-10-23T19:24:39.801Z,12.13
2022-10-23T19:27:08.759Z,12.19
2022-10-23T19:29:40.117Z,12.34
2022-10-23T19:32:07.590Z,12.39
2022-10-23T19:34:35.274Z,12.20
2022-10-23T19:37:03.064Z,12.28
2022-10-23T19:39:30.496Z,12.15
2022-10-23T19:41:58.718Z,12.11
2022-10-23T19:44:26.834Z,12.09
2022-10-23T19:46:54.256Z,11.85
2022-10-23T19:49:24.004Z,11.83
2022-10-23T19:51:51.901Z,11.84
2022-10-23T19:54:21.082Z,11.83
2022-10-23T19:56:48.798Z,11.75
2022-10-23T19:59:17.150Z,11.77
2022-10-23T20:01:47.803Z,11.79
2022-10-23T20:04:18.520Z,11.92
2022-10-23T20:06:46.923Z,11.82
2022-10-23T20:09:14.334Z,11.66
2022-10-23T20:11:43.629Z,11.66
2022-10-23T20:14:11.442Z,11.63
2022-10-23T20:16:40.003Z,11.36
2022-10-23T20:19:10.440Z,11.34
2022-10-23T20:21:39.825Z,11.11
2022-10-23T20:24:08.287Z,11.13
2022-10-23T20:26:36.203Z,10.89
2022-10-23T20:29:03.817Z,11.11
2022-10-23T20:31:33.615Z,11.05
2022-10-23T20:34:01.483Z,11.04
2022-10-23T20:36:35.008Z,11.02
2022-10-23T20:39:12.148Z,10.97
2022-10-23T20:41:40.927Z,11.09
2022-10-23T20:44:09.843Z,11.08
2022-10-23T20:46:37.472Z,10.85
2022-10-23T20:49:05.104Z,10.85
2022-10-23T20:51:33.374Z,10.82
2022-10-23T20:54:00.827Z,10.53
2022-10-23T20:56:31.448Z,10.56
2022-10-23T20:59:01.251Z,10.73
2022-10-23T21:01:30.463Z,10.74
2022-10-23T21:03:59.971Z,10.82
2022-10-23T21:06:41.046Z,10.86
2022-10-23T21:09:18.915Z,10.84
2022-10-23T21:11:46.832Z,10.76
2022-10-23T21:14:14.291Z,10.56
2022-10-23T21:16:44.606Z,10.68
2022-10-23T21:19:14.744Z,10.59
2022-10-23T21:21:43.009Z,10.40
2022-10-23T21:24:15.160Z,10.55
2022-10-23T21:26:43.064Z,10.61
2022-10-23T21:29:19.853Z,10.64
2022-10-23T21:31:59.844Z,10.22
2022-10-23T21:34:28.339Z,10.36
2022-10-23T21:37:13.380Z,10.23
2022-10-23T21:39:46.379Z,10.18
2022-10-23T21:42:14.558Z,10.29
2022-10-23T21:44:41.975Z,10.39
2022-10-23T21:47:09.560Z,10.30
2022-10-23T21:49:37.489Z,10.23
2022-10-23T21:52:05.294Z,10.31
2022-10-23T21:54:33.142Z,10.12
2022-10-23T21:57:03.412Z,10.21
2022-10-23T21:59:33.170Z,10.04
2022-10-23T22:02:03.356Z,9.95
2022-10-23T22:04:31.449Z,9.97
2022-10-23T22:06:58.762Z,9.96
2022-10-23T22:09:26.033Z,9.64
2022-10-23T22:11:54.372Z,9.86
2022-10-23T22:14:23.051Z,9.73
2022-10-23T22:16:50.457Z,9.67
2022-10-23T22:19:20.104Z,9.69
2022-10-23T22:21:48.744Z,9.80
2022-10-23T22:24:17.765Z,9.79
2022-10-23T22:26:51.733Z,9.62
2022-10-23T22:29:24.957Z,9.59
2022-10-23T22:31:53.520Z,9.38
2022-10-23T22:37:12.220Z,9.31
2022-10-23T22:39:40.364Z,9.38
2022-10-23T22:42:08.014Z,9.52
2022-10-23T22:44:35.840Z,9.47
2022-10-23T22:47:03.605Z,9.57
2022-10-23T22:49:31.046Z,9.42
2022-10-23T22:51:58.812Z,9.41
2022-10-23T22:54:26.244Z,9.39
2022-10-23T22:56:53.686Z,9.45
2022-10-23T22:59:21.425Z,9.46
2022-10-23T23:01:49.513Z,9.23
2022-10-23T23:07:08.763Z,9.42
2022-10-23T23:09:41.673Z,9.33
2022-10-23T23:12:11.360Z,9.34
2022-10-23T23:14:39.543Z,9.36
2022-10-23T23:17:08.202Z,9.05
2022-10-23T23:19:36.206Z,8.94
2022-10-23T23:22:03.945Z,8.90
2022-10-23T23:24:32.262Z,9.04
2022-10-23T23:26:59.970Z,9.12
2022-10-23T23:29:28.522Z,9.09
2022-10-23T23:31:56.132Z,9.04
2022-10-23T23:34:23.983Z,9.02
2022-10-23T23:36:51.498Z,8.87
2022-10-23T23:39:18.873Z,8.94
2022-10-23T23:41:46.736Z,8.89
2022-10-23T23:44:14.248Z,8.97
2022-10-23T23:46:41.755Z,8.92
2022-10-23T23:49:09.428Z,8.93
2022-10-23T23:51:37.437Z,8.82
2022-10-23T23:54:04.968Z,8.85
2022-10-23T23:56:32.756Z,8.83
2022-10-23T23:59:00.114Z,8.95
